Home > Products > Valid Products > MTR

000
SAUS43 KAPX 010155
MTRAPN
METAR KAPN 010154Z AUTO 02016G24KT 10SM OVC033 M01/M06 A3030 RMK AO2
PK WND 01030/0134 SLP272 T10061061 $





000
SAUS43 KAPX 010147
MTRAPN
SPECI KAPN 010145Z AUTO 01019G24KT 10SM OVC031 M01/M06 A3030 RMK AO2
PK WND 01030/0134 T10061061 $





000
SAUS43 KAPX 010056
MTRAPN
METAR KAPN 010054Z AUTO 01017G24KT 10SM BKN029 OVC035 00/M05 A3029
RMK AO2 PK WND 01030/0019 SLP266 T00001050 $





000
SAUS43 KAPX 010020
MTRAPN
SPECI KAPN 010019Z AUTO 36025G30KT 10SM OVC029 00/M05 A3028 RMK AO2
PK WND 01030/0019 T00001050 $





000
SAUS43 KAPX 312355
MTRAPN
METAR KAPN 312354Z AUTO 01016G23KT 10SM OVC033 00/M05 A3027 RMK AO2
PK WND 01030/2302 SLP260 60000 T00001050 10011 20000 51031 $





000
SAUS43 KAPX 312255
MTRAPN
METAR KAPN 312254Z AUTO 01017KT 10SM OVC032 01/M04 A3025 RMK AO2 PK
WND 03026/2243 UPB01E23SNB05E15 SLP250 P0000 T00061039 $





000
SAUS43 KAPX 312255
MTRAPN
METAR KAPN 312254Z AUTO 01017KT 10SM OVC032 01/M04 A3025 RMK AO2 PK
WND 03026/2243 UPB01E23SNB05E15 SLP250 P0000 T00061039 $





000
SAUS43 KAPX 312155
MTRAPN
METAR KAPN 312154Z AUTO 36017G23KT 10SM BKN028 OVC035 01/M03 A3022
RMK AO2 PK WND 01030/2121 UPB30E40 SLP240 P0000 T00061033 $





000
SAUS43 KAPX 312055
MTRAPN
METAR KAPN 312054Z AUTO 01018G25KT 10SM OVC027 01/M03 A3018 RMK AO2
PK WND 01031/2016 SLP228 60000 T00111033 53019 $





000
SAUS43 KAPX 311958 COR
MTRAPN
METAR KAPN 311954Z AUTO 01017G29KT 10SM OVC028 01/M03 A3015 RMK AO2
PK WND 02030/1901 RAE29UPB17E34 SLP218 P0000 T00111028





000
SAUS43 KAPX 311956 COR
MTRAPN
METAR KAPN 311954Z AUTO 01017G29KT 10SM OVC028 01/M03 A3015 RMK AO2
PK WND 02030/1901 RAE29UPB17E34 SLP218 P0000 T00111028





000
SAUS43 KAPX 311857 COR
MTRAPN
METAR KAPN 311854Z AUTO 01020G28KT 10SM -RA SCT021 OVC027 01/M02
A3013 RMK AO2 PK WND 02028/1846 UPB48E50RAB50SNE48 SLP212 P0000
T00061022





000
SAUS43 KAPX 311856 COR
MTRAPN
METAR KAPN 311854Z AUTO 01020G28KT 10SM -RA SCT021 OVC027 01/M02
A3013 RMK AO2 PK WND 02028/1846 UPB48E50RAB50SNE48 SLP212 P0000
T00061022





000
SAUS43 KAPX 311855
MTRAPN
METAR KAPN 311854Z AUTO 01020G28KT 10SM -RA SCT021 OVC027 01/M02
A3013 RMK AO2 PK WND 02028/1846 UPB48E50RAB50SNE48 SLP212 P0000
T00061022





000
SAUS43 KAPX 311836 COR
MTRAPN
SPECI KAPN 311832Z AUTO 02017G24KT 5SM -SN BR BKN017 OVC028 01/M01
A3014 RMK AO2 PK WND 36027/1755 P0000 T00061011





000
SAUS43 KAPX 311835 COR
MTRAPN
SPECI KAPN 311832Z AUTO 02017G24KT 5SM -SN BR BKN017 OVC028 01/M01
A3014 RMK AO2 PK WND 36027/1755 P0000 T00061011





000
SAUS43 KAPX 311834
MTRAPN
SPECI KAPN 311832Z AUTO 02017G24KT 5SM -SN BR BKN017 OVC028 01/M01
A3014 RMK AO2 PK WND 36027/1755 P0000 T00061011





000
SAUS43 KAPX 311825
MTRAPN
SPECI KAPN 311824Z AUTO 01020G27KT 2 1/2SM -SN BR SCT017 BKN023
OVC028 01/M02 A3013 RMK AO2 PK WND 36027/1755 P0000 T00061017





000
SAUS43 KAPX 311817
MTRAPN
SPECI KAPN 311815Z AUTO 02019G26KT 3SM -SN BR SCT015 BKN022 OVC029
01/M01 A3013 RMK AO2 PK WND 36027/1755 P0000 T00061011





000
SAUS43 KAPX 311757 COR
MTRAPN
METAR KAPN 311754Z AUTO 01019G27KT 2 1/2SM -SN BR FEW015 BKN022
OVC031 01/M01 A3012 RMK AO2 PK WND 01033/1737 VIS 1 1/4 RY 19 SLP208
P0001 60011 T00061011 10028 20000 53012





000
SAUS43 KAPX 311756 COR
MTRAPN
METAR KAPN 311754Z AUTO 01019G27KT 2 1/2SM -SN BR FEW015 BKN022
OVC031 01/M01 A3012 RMK AO2 PK WND 01033/1737 VIS 1 1/4 RY 19 SLP208
P0001 60011 T00061011 10028 20000 53012





000
SAUS43 KAPX 311755
MTRAPN
METAR KAPN 311754Z AUTO 01019G27KT 2 1/2SM -SN BR FEW015 BKN022
OVC031 01/M01 A3012 RMK AO2 PK WND 01033/1737 VIS 1 1/4 RY 19 SLP208
P0001 60011 T00061011 10028 20000 53012





000
SAUS43 KAPX 311745
MTRAPN
SPECI KAPN 311744Z AUTO 02021G33KT 3SM -SN BR BKN022 OVC028 01/M01
A3012 RMK AO2 PK WND 01033/1737 VIS 2 RY 19 P0001 T00061011





000
SAUS43 KAPX 311736 COR
MTRAPN
SPECI KAPN 311733Z AUTO 01024G28KT 1 3/4SM -SN BR FEW015 BKN019
OVC032 00/M01 A3012 RMK AO2 PK WND 02030/1718 P0001 T00001011





000
SAUS43 KAPX 311735 COR
MTRAPN
SPECI KAPN 311733Z AUTO 01024G28KT 1 3/4SM -SN BR FEW015 BKN019
OVC032 00/M01 A3012 RMK AO2 PK WND 02030/1718 P0001 T00001011





000
SAUS43 KAPX 311728 COR
MTRAPN
SPECI KAPN 311725Z AUTO 01018G30KT 5SM -SN BR FEW010 BKN022 OVC032
01/M01 A3012 RMK AO2 PK WND 02030/1718 P0001 T00061011





000
SAUS43 KAPX 311727 COR
MTRAPN
SPECI KAPN 311725Z AUTO 01018G30KT 5SM -SN BR FEW010 BKN022 OVC032
01/M01 A3012 RMK AO2 PK WND 02030/1718 P0001 T00061011





000
SAUS43 KAPX 311726
MTRAPN
SPECI KAPN 311725Z AUTO 01018G30KT 5SM -SN BR FEW010 BKN022 OVC032
01/M01 A3012 RMK AO2 PK WND 02030/1718 P0001 T00061011





000
SAUS43 KAPX 311719
MTRAPN
SPECI KAPN 311717Z AUTO 01020G30KT 2SM -SN BR FEW008 SCT012 OVC018
01/M01 A3011 RMK AO2 PK WND 02030/1713 P0001 T00061011





000
SAUS43 KAPX 311707
MTRAPN
SPECI KAPN 311706Z AUTO 01018G25KT 1SM -SN BR BKN010 OVC013 00/M01
A3012 RMK AO2 P0001 T00001006





000
SAUS43 KAPX 311659
MTRAPN
SPECI KAPN 311658Z AUTO 01017KT 3/4SM -SN BR BKN008 OVC015 00/M01
A3011 RMK AO2 P0000 T00001006





000
SAUS43 KAPX 311659
MTRAPN
SPECI KAPN 311658Z AUTO 01017KT 3/4SM -SN BR BKN008 OVC015 00/M01
A3011 RMK AO2 P0000 T00001006





000
SAUS43 KAPX 311655
MTRAPN
METAR KAPN 311654Z AUTO 01016G26KT 1SM -SN BR BKN010 OVC015 00/M01
A3011 RMK AO2 PK WND 01030/1558 SLP204 P0001 T00001006





000
SAUS43 KAPX 311655
MTRAPN
METAR KAPN 311654Z AUTO 01016G26KT 1SM -SN BR BKN010 OVC015 00/M01
A3011 RMK AO2 PK WND 01030/1558 SLP204 P0001 T00001006





000
SAUS43 KAPX 311649
MTRAPN
SPECI KAPN 311648Z AUTO 02023G26KT 1SM -SN BR SCT010 OVC015 01/M01
A3011 RMK AO2 PK WND 01030/1558 P0001 TSNO





000
SAUS43 KAPX 311649
MTRAPN
SPECI KAPN 311648Z AUTO 02023G26KT 1SM -SN BR SCT010 OVC015 01/M01
A3011 RMK AO2 PK WND 01030/1558 P0001 TSNO





000
SAUS43 KAPX 311648 COR
MTRAPN
SPECI KAPN 311644Z AUTO 02017KT 3/4SM -SN BR SCT009 OVC014 00/M01
A3011 RMK AO2 PK WND 01030/1558 P0001 T00001006





000
SAUS43 KAPX 311648 COR
MTRAPN
SPECI KAPN 311644Z AUTO 02017KT 3/4SM -SN BR SCT009 OVC014 00/M01
A3011 RMK AO2 PK WND 01030/1558 P0001 T00001006





000
SAUS43 KAPX 311646 COR
MTRAPN
SPECI KAPN 311644Z AUTO 02017KT 3/4SM -SN BR SCT009 OVC014 00/M01
A3011 RMK AO2 PK WND 01030/1558 P0001 T00001006





000
SAUS43 KAPX 311646 COR
MTRAPN
SPECI KAPN 311644Z AUTO 02017KT 3/4SM -SN BR SCT009 OVC014 00/M01
A3011 RMK AO2 PK WND 01030/1558 P0001 T00001006





000
SAUS43 KAPX 311634 COR
MTRAPN
SPECI KAPN 311630Z AUTO 02020G28KT 1SM -SN BR FEW009 OVC013 01/M01
A3011 RMK AO2 PK WND 01030/1558 P0001 T00061006





000
SAUS43 KAPX 311632 COR
MTRAPN
SPECI KAPN 311630Z AUTO 02020G28KT 1SM -SN BR FEW009 OVC013 01/M01
A3011 RMK AO2 PK WND 01030/1558 P0001 T00061006





000
SAUS43 KAPX 311631
MTRAPN
SPECI KAPN 311630Z AUTO 02020G28KT 1SM -SN BR FEW009 OVC013 01/M01
A3011 RMK AO2 PK WND 01030/1558 P0001 T00061006





000
SAUS43 KAPX 311610
MTRAPN
SPECI KAPN 311608Z AUTO 01021G28KT 3/4SM -SN BR FEW009 OVC013 01/M01
A3010 RMK AO2 PK WND 01030/1558 P0000 T00061006





000
SAUS43 KAPX 311557 COR
MTRAPN
METAR KAPN 311554Z AUTO 02022G26KT 1SM -SN BR FEW012 BKN018 OVC025
01/M01 A3009 RMK AO2 PK WND 01030/1539 SLP197 P0002 T00061006





000
SAUS43 KAPX 311556 COR
MTRAPN
METAR KAPN 311554Z AUTO 02022G26KT 1SM -SN BR FEW012 BKN018 OVC025
01/M01 A3009 RMK AO2 PK WND 01030/1539 SLP197 P0002 T00061006





000
SAUS43 KAPX 311546
MTRAPN
SPECI KAPN 311545Z AUTO 02020G30KT 1 1/4SM -SN BR SCT015 BKN020
01/M01 A3009 RMK AO2 PK WND 01030/1539 P0001 T00061006





000
SAUS43 KAPX 311539 COR
MTRAPN
SPECI KAPN 311536Z AUTO 02019G26KT 2SM -SN BR FEW013 BKN017 OVC024
01/M01 A3009 RMK AO2 PK WND 02028/1457 VIS 1 1/4 RY 19 P0001
T00061011





000
SAUS43 KAPX 311538 COR
MTRAPN
SPECI KAPN 311536Z AUTO 02019G26KT 2SM -SN BR FEW013 BKN017 OVC024
01/M01 A3009 RMK AO2 PK WND 02028/1457 VIS 1 1/4 RY 19 P0001
T00061011





000
SAUS43 KAPX 311525 COR
MTRAPN
SPECI KAPN 311522Z AUTO 02019G27KT 2 1/2SM -SN BR BKN013 OVC018
01/M01 A3007 RMK AO2 PK WND 02028/1457 P0001 T00061006





000
SAUS43 KAPX 311524 COR
MTRAPN
SPECI KAPN 311522Z AUTO 02019G27KT 2 1/2SM -SN BR BKN013 OVC018
01/M01 A3007 RMK AO2 PK WND 02028/1457 P0001 T00061006





000
SAUS43 KAPX 311523
MTRAPN
SPECI KAPN 311522Z AUTO 02019G27KT 2 1/2SM -SN BR BKN013 OVC018
01/M01 A3007 RMK AO2 PK WND 02028/1457 P0001 T00061006





000
SAUS43 KAPX 311516
MTRAPN
SPECI KAPN 311515Z AUTO 02022G27KT 1 1/4SM -SN BR SCT011 OVC016
01/M01 A3007 RMK AO2 PK WND 02028/1457 P0001 T00061006





000
SAUS43 KAPX 311504
MTRAPN
SPECI KAPN 311502Z AUTO 02017G28KT 3/4SM -SN BR FEW010 OVC014 01/M01
A3007 RMK AO2 PK WND 02028/1457 P0000 T00061006 TSNO





000
SAUS43 KAPX 311459 COR
MTRAPN
METAR KAPN 311454Z AUTO 02017G27KT 1SM -SN BR FEW010 OVC018 01/M01
A3006 RMK AO2 PK WND 36033/1359 SLP187 P0001 60007 T00061006 51026
TSNO





000
SAUS43 KAPX 311458 COR
MTRAPN
METAR KAPN 311454Z AUTO 02017G27KT 1SM -SN BR FEW010 OVC018 01/M01
A3006 RMK AO2 PK WND 36033/1359 SLP187 P0001 60007 T00061006 51026
TSNO





000
SAUS43 KAPX 311456 COR
MTRAPN
METAR KAPN 311454Z AUTO 02017G27KT 1SM -SN BR FEW010 OVC018 01/M01
A3006 RMK AO2 PK WND 36033/1359 SLP187 P0001 60007 T00061006 51026
TSNO





000
SAUS43 KAPX 311445 COR
MTRAPN
SPECI KAPN 311441Z AUTO 02020G29KT 1SM -SN BR FEW010 BKN017 OVC024
01/M01 A3005 RMK AO2 PK WND 36033/1359 P0001 T00061006 TSNO





000
SAUS43 KAPX 311444 COR
MTRAPN
SPECI KAPN 311441Z AUTO 02020G29KT 1SM -SN BR FEW010 BKN017 OVC024
01/M01 A3005 RMK AO2 PK WND 36033/1359 P0001 T00061006 TSNO





000
SAUS43 KAPX 311419
MTRAPN
SPECI KAPN 311417Z AUTO 02023G29KT 2 1/2SM -SN BR FEW010 BKN015
OVC022 01/00 A3004 RMK AO2 PK WND 36033/1359 P0001 T00110000 TSNO





000
SAUS43 KAPX 311410
MTRAPN
SPECI KAPN 311409Z AUTO 02019G33KT 1 3/4SM -SN BR SCT010 OVC015
01/M01 A3004 RMK AO2 PK WND 36033/1359 P0001 T00111006 TSNO





000
SAUS43 KAPX 311356 COR
MTRAPN
METAR KAPN 311354Z AUTO 02021G27KT 1 1/2SM -SN BR BKN010 OVC015
01/00 A3003 RMK AO2 PK WND 02030/1330 SLP176 P0003 T00060000 TSNO





000
SAUS43 KAPX 311354
MTRAPN
METAR KAPN 311354Z AUTO 02021G27KT 1 1/2SM -SN BR BKN010 OVC015
01/00 A3003 RMK AO2 PK WND 02030/1330 SLP176 P0003 T00060000 TSNO





000
SAUS43 KAPX 311346
MTRAPN
SPECI KAPN 311345Z AUTO 02022G28KT 1 1/4SM -SN BR SCT007 OVC015
01/00 A3003 RMK AO2 PK WND 02030/1330 P0003 T00110000 TSNO





000
SAUS43 KAPX 311346
MTRAPN
SPECI KAPN 311345Z AUTO 02022G28KT 1 1/4SM -SN BR SCT007 OVC015
01/00 A3003 RMK AO2 PK WND 02030/1330 P0003 T00110000 TSNO





000
SAUS43 KAPX 311337
MTRAPN
SPECI KAPN 311336Z AUTO 03020G30KT 1 3/4SM -SN BR BKN009 OVC015
01/00 A3002 RMK AO2 PK WND 02030/1330 P0002 T00110000 TSNO





000
SAUS43 KAPX 311331
MTRAPN
SPECI KAPN 311330Z AUTO 03023G30KT 2 1/2SM -SN BR FEW007 BKN012
OVC017 01/00 A3001 RMK AO2 PK WND 02030/1330 P0001 T00110000 TSNO





000
SAUS43 KAPX 311255
MTRAPN
METAR KAPN 311254Z AUTO 02022G31KT 5SM -SN BR BKN011 OVC017 02/01
A2998 RMK AO2 PK WND 01033/1157 RAE17SNB1159 SLP160 P0003 T00170006
TSNO





000
SAUS43 KAPX 311239
MTRAPN
SPECI KAPN 311238Z AUTO 03021G26KT 6SM -SN BR BKN011 OVC017 02/01
A2997 RMK AO2 PK WND 01033/1157 RAE17SNB1159 P0002 T00170006 TSNO





000
SAUS43 KAPX 311228
MTRAPN
SPECI KAPN 311227Z AUTO 02018G30KT 6SM -SN BR BKN009 OVC017 02/01
A2996 RMK AO2 PK WND 01033/1157 RAE17SNB1159 P0002 T00170006 TSNO





000
SAUS43 KAPX 311221
MTRAPN
SPECI KAPN 311220Z AUTO 02018G26KT 5SM -SN BR BKN011 OVC017 02/01
A2995 RMK AO2 PK WND 01033/1157 RAE17SNB1159 P0002 T00170006 TSNO





000
SAUS43 KAPX 311157 COR
MTRAPN
METAR KAPN 311154Z AUTO 02017G28KT 5SM -RA BR OVC008 03/01 A2994 RMK
AO2 PK WND 03031/1134 RAB21SNB39E48 CIG 006V012 SLP143 P0002 60005
70009 T00280011 10050 20028 53018 TSNO





000
SAUS43 KAPX 311156 COR
MTRAPN
METAR KAPN 311154Z AUTO 02017G28KT 5SM -RA BR OVC008 03/01 A2994 RMK
AO2 PK WND 03031/1134 RAB21SNB39E48 CIG 006V012 SLP143 P0002 60005
70009 T00280011 10050 20028 53018 TSNO





000
SAUS43 KAPX 311055
MTRAPN
METAR KAPN 311054Z AUTO 33008KT 9SM BKN009 BKN018 OVC023 04/03 A2990
RMK AO2 RAE13 CIG 007V012 SLP130 P0000 T00390028 TSNO





000
SAUS43 KAPX 311055
MTRAPN
METAR KAPN 311054Z AUTO 33008KT 9SM BKN009 BKN018 OVC023 04/03 A2990
RMK AO2 RAE13 CIG 007V012 SLP130 P0000 T00390028 TSNO





000
SAUS43 KAPX 311033
MTRAPN
SPECI KAPN 311032Z AUTO 32006KT 10SM FEW007 BKN011 OVC024 04/03
A2990 RMK AO2 RAE13 P0000 T00390028 TSNO





000
SAUS43 KAPX 311012
MTRAPN
SPECI KAPN 311010Z AUTO 31005KT 10SM -RA BKN009 OVC014 04/03 A2989
RMK AO2 P0000 T00390033 TSNO





000
SAUS43 KAPX 311003
MTRAPN
SPECI KAPN 311002Z AUTO 31006KT 10SM -RA SCT009 BKN016 OVC030 04/03
A2989 RMK AO2 P0000 T00390033 TSNO





000
SAUS43 KAPX 311003
MTRAPN
SPECI KAPN 311002Z AUTO 31006KT 10SM -RA SCT009 BKN016 OVC030 04/03
A2989 RMK AO2 P0000 T00390033 TSNO





000
SAUS43 KAPX 310956
MTRAPN
METAR KAPN 310954Z AUTO 32007KT 10SM -RA BKN010 BKN016 OVC039 04/03
A2989 RMK AO2 SLP126 P0000 T00390033 TSNO





000
SAUS43 KAPX 310956
MTRAPN
METAR KAPN 310954Z AUTO 32007KT 10SM -RA BKN010 BKN016 OVC039 04/03
A2989 RMK AO2 SLP126 P0000 T00390033 TSNO





000
SAUS43 KAPX 310947
MTRAPN
SPECI KAPN 310946Z AUTO 31006KT 10SM -RA BKN010 BKN016 OVC048 04/03
A2989 RMK AO2 P0000 T00390033 TSNO





000
SAUS43 KAPX 310857 COR
MTRAPN
METAR KAPN 310854Z AUTO 00000KT 10SM -RA FEW055 BKN070 OVC085 04/04
A2988 RMK AO2 RAE06B30 SLP124 P0000 60003 T00440039 58003 TSNO





000
SAUS43 KAPX 310856 COR
MTRAPN
METAR KAPN 310854Z AUTO 00000KT 10SM -RA FEW055 BKN070 OVC085 04/04
A2988 RMK AO2 RAE06B30 SLP124 P0000 60003 T00440039 58003 TSNO





000
SAUS43 KAPX 310855
MTRAPN
METAR KAPN 310854Z AUTO 00000KT 10SM -RA FEW055 BKN070 OVC085 04/04
A2988 RMK AO2 RAE06B30 SLP124 P0000 60003 T00440039 58003 TSNO





000
SAUS43 KAPX 310825
MTRAPN
SPECI KAPN 310824Z AUTO 29003KT 10SM FEW016 BKN049 OVC060 04/03
A2988 RMK AO2 RAE06 P0000 T00440033 TSNO





000
SAUS43 KAPX 310810
MTRAPN
SPECI KAPN 310809Z AUTO 28003KT 10SM SCT011 BKN016 OVC048 04/04
A2988 RMK AO2 RAE06 P0000 T00440039 TSNO





000
SAUS43 KAPX 310755
MTRAPN
METAR KAPN 310754Z AUTO 29003KT 10SM -RA OVC013 04/04 A2989 RMK AO2
RAB0659 SLP126 P0001 T00440039 TSNO





000
SAUS43 KAPX 310751
MTRAPN
SPECI KAPN 310750Z AUTO 00000KT 10SM -RA OVC013 04/04 A2989 RMK AO2
RAB0659 P0001 TSNO





000
SAUS43 KAPX 310655
MTRAPN
METAR KAPN 310654Z AUTO 00000KT 10SM FEW019 BKN026 OVC090 05/04
A2989 RMK AO2 RAE43 SLP127 P0002 T00500039 TSNO





000
SAUS43 KAPX 310610
MTRAPN
SPECI KAPN 310609Z AUTO 26004KT 10SM -RA BKN019 BKN060 OVC075 05/04
A2989 RMK AO2 P0000 T00500044 TSNO





000
SAUS43 KAPX 310555
MTRAPN
METAR KAPN 310554Z AUTO 24004KT 9SM -RA FEW018 BKN060 OVC075 05/04
A2989 RMK AO2 SLP128 P0000 60001 T00500044 10056 20050 56016 TSNO





000
SAUS43 KAPX 310524
MTRAPN
SPECI KAPN 310523Z AUTO 22003KT 10SM -RA SCT026 BKN039 OVC055 05/04
A2990 RMK AO2 P0000 T00500044 TSNO





000
SAUS43 KAPX 310458 COR
MTRAPN
METAR KAPN 310454Z AUTO 21003KT 10SM -RA BKN025 BKN031 OVC038 05/04
A2991 RMK AO2 SLP133 P0000 T00500044 400611006 TSNO





000
SAUS43 KAPX 310458 COR
MTRAPN
METAR KAPN 310454Z AUTO 21003KT 10SM -RA BKN025 BKN031 OVC038 05/04
A2991 RMK AO2 SLP133 P0000 T00500044 400611006 TSNO





000
SAUS43 KAPX 310457 COR
MTRAPN
METAR KAPN 310454Z AUTO 21003KT 10SM -RA BKN025 BKN031 OVC038 05/04
A2991 RMK AO2 SLP133 P0000 T00500044 400611006 TSNO





000
SAUS43 KAPX 310457 COR
MTRAPN
METAR KAPN 310454Z AUTO 21003KT 10SM -RA BKN025 BKN031 OVC038 05/04
A2991 RMK AO2 SLP133 P0000 T00500044 400611006 TSNO





000
SAUS43 KAPX 310433
MTRAPN
SPECI KAPN 310432Z AUTO 20004KT 10SM -RA BKN024 BKN030 OVC070 05/04
A2991 RMK AO2 P0000 T00500044 TSNO





000
SAUS43 KAPX 310355
MTRAPN
METAR KAPN 310354Z AUTO 20004KT 9SM -RA SCT024 BKN060 OVC070 05/04
A2992 RMK AO2 RAB12 SLP139 P0001 T00500044 TSNO





000
SAUS43 KAPX 310355
MTRAPN
METAR KAPN 310354Z AUTO 20004KT 9SM -RA SCT024 BKN060 OVC070 05/04
A2992 RMK AO2 RAB12 SLP139 P0001 T00500044 TSNO





000
SAUS43 KAPX 310255
MTRAPN
METAR KAPN 310254Z AUTO 22004KT 10SM FEW045 BKN060 OVC070 06/04
A2994 RMK AO2 RAE53 SLP145 P0000 60000 T00560044 56017 TSNO





000
SAUS43 KAPX 310155
MTRAPN
METAR KAPN 310154Z AUTO 21003KT 10SM -RA FEW038 BKN050 OVC060 06/04
A2996 RMK AO2 RAB43 SLP150 P0000 T00560044 TSNO





000
SAUS43 KAPX 310056
MTRAPN
METAR KAPN 310054Z AUTO 19004KT 10SM BKN046 BKN055 OVC070 06/05
A2997 RMK AO2 RAE45 SLP157 P0000 T00560050 TSNO





000
SAUS43 KAPX 310030
MTRAPN
SPECI KAPN 310029Z AUTO 19003KT 10SM -RA SCT030 OVC041 06/05 A2998
RMK AO2 P0000 T00560050 TSNO





000
SAUS43 KAPX 302356 COR
MTRAPN
METAR KAPN 302354Z AUTO 19005KT 10SM -RA BKN026 OVC039 06/05 A2999
RMK AO2 SLP163 P0001 60003 T00560050 10061 20056 56005 TSNO





000
SAUS43 KAPX 302355
MTRAPN
METAR KAPN 302354Z AUTO 19005KT 10SM -RA BKN026 OVC039 06/05 A2999
RMK AO2 SLP163 P0001 60003 T00560050 10061 20056 56005 TSNO





000
SAUS43 KAPX 302302
MTRAPN
SPECI KAPN 302301Z AUTO 18005KT 10SM -RA FEW022 OVC035 06/05 A3000
RMK AO2 P0000 T00560050 TSNO





000
SAUS43 KAPX 302255
MTRAPN
METAR KAPN 302254Z AUTO 17006KT 10SM -RA FEW022 BKN029 OVC037 06/05
A3000 RMK AO2 SLP165 P0001 T00560050 TSNO





000
SAUS43 KAPX 302155
MTRAPN
METAR KAPN 302154Z AUTO 14005KT 10SM -RA BKN023 OVC031 06/04 A3001
RMK AO2 SLP169 P0000 T00560044 TSNO





000
SAUS43 KAPX 302155
MTRAPN
METAR KAPN 302154Z AUTO 14005KT 10SM -RA BKN023 OVC031 06/04 A3001
RMK AO2 SLP169 P0000 T00560044 TSNO





000
SAUS43 KAPX 302055
MTRAPN
METAR KAPN 302054Z AUTO 00000KT 10SM -RA FEW042 BKN050 OVC060 06/04
A3001 RMK AO2 SLP170 P0001 60001 T00610039 58007 TSNO





000
SAUS43 KAPX 301958 COR
MTRAPN
METAR KAPN 301954Z AUTO 20004KT 10SM -RA BKN030 OVC040 06/03 A3002
RMK AO2 SLP173 P0000 T00610028 TSNO





000
SAUS43 KAPX 301957 COR
MTRAPN
METAR KAPN 301954Z AUTO 20004KT 10SM -RA BKN030 OVC040 06/03 A3002
RMK AO2 SLP173 P0000 T00610028 TSNO





000
SAUS43 KAPX 301956
MTRAPN
METAR KAPN 301954Z AUTO 20004KT 10SM -RA BKN030 OVC040 06/03 A3002
RMK AO2 SLP173 P0000 T00610028 TSNO





000
SAUS43 KAPX 301856 COR
MTRAPN
METAR KAPN 301854Z AUTO 19004KT 10SM -RA SCT027 OVC050 06/02 A3004
RMK AO2 RAB45 SLP177 P0000 T00610022 TSNO





000
SAUS43 KAPX 301855
MTRAPN
METAR KAPN 301854Z AUTO 19004KT 10SM -RA SCT027 OVC050 06/02 A3004
RMK AO2 RAB45 SLP177 P0000 T00610022 TSNO





000
SAUS43 KAPX 301755
MTRAPN
METAR KAPN 301754Z AUTO 20005KT 10SM OVC026 06/02 A3005 RMK AO2
SLP184 T00560017 10056 20006 58014 TSNO





000
SAUS43 KAPX 301722
MTRAPN
SPECI KAPN 301721Z AUTO 21004KT 10SM BKN028 OVC033 06/01 A3007 RMK
AO2 T00560011 TSNO





000
SAUS43 KAPX 301658 COR
MTRAPN
METAR KAPN 301654Z AUTO 24003KT 10SM BKN031 OVC070 05/01 A3008 RMK
AO2 SLP191 T00500006 TSNO





000
SAUS43 KAPX 301658 COR
MTRAPN
METAR KAPN 301654Z AUTO 24003KT 10SM BKN031 OVC070 05/01 A3008 RMK
AO2 SLP191 T00500006 TSNO





000
SAUS43 KAPX 301656 COR
MTRAPN
METAR KAPN 301654Z AUTO 24003KT 10SM BKN031 OVC070 05/01 A3008 RMK
AO2 SLP191 T00500006 TSNO





000
SAUS43 KAPX 301656 COR
MTRAPN
METAR KAPN 301654Z AUTO 24003KT 10SM BKN031 OVC070 05/01 A3008 RMK
AO2 SLP191 T00500006 TSNO





000
SAUS43 KAPX 301627 COR
MTRAPN
SPECI KAPN 301624Z AUTO 21006KT 10SM FEW028 SCT042 OVC070 04/01
A3008 RMK AO2 T00440006 TSNO





000
SAUS43 KAPX 301627 COR
MTRAPN
SPECI KAPN 301624Z AUTO 21006KT 10SM FEW028 SCT042 OVC070 04/01
A3008 RMK AO2 T00440006 TSNO





000
SAUS43 KAPX 301626 COR
MTRAPN
SPECI KAPN 301624Z AUTO 21006KT 10SM FEW028 SCT042 OVC070 04/01
A3008 RMK AO2 T00440006 TSNO





000
SAUS43 KAPX 301626 COR
MTRAPN
SPECI KAPN 301624Z AUTO 21006KT 10SM FEW028 SCT042 OVC070 04/01
A3008 RMK AO2 T00440006 TSNO





000
SAUS43 KAPX 301625
MTRAPN
SPECI KAPN 301624Z AUTO 21006KT 10SM FEW028 SCT042 OVC070 04/01
A3008 RMK AO2 T00440006 TSNO





000
SAUS43 KAPX 301625
MTRAPN
SPECI KAPN 301624Z AUTO 21006KT 10SM FEW028 SCT042 OVC070 04/01
A3008 RMK AO2 T00440006 TSNO





000
SAUS43 KAPX 301613
MTRAPN
SPECI KAPN 301612Z AUTO 23006KT 10SM BKN029 OVC042 04/01 A3009 RMK
AO2 T00440006 TSNO





000
SAUS43 KAPX 301556
MTRAPN
METAR KAPN 301554Z AUTO 23005KT 10SM OVC032 04/01 A3009 RMK AO2
SLP195 T00440006 TSNO





000
SAUS43 KAPX 301455
MTRAPN
METAR KAPN 301454Z AUTO 24005KT 10SM OVC036 03/01 A3009 RMK AO2
SLP197 T00330006 50004 TSNO





000
SAUS43 KAPX 301355
MTRAPN
METAR KAPN 301354Z AUTO 23005KT 10SM OVC038 02/00 A3010 RMK AO2
SLP201 T00220000 TSNO





000
SAUS43 KAPX 301255
MTRAPN
METAR KAPN 301254Z AUTO 24004KT 10SM OVC065 01/00 A3010 RMK AO2
SLP199 T00110000 TSNO





000
SAUS43 KAPX 301155
MTRAPN
METAR KAPN 301154Z AUTO 24003KT 10SM OVC065 01/M01 A3008 RMK AO2
SLP194 T00061006 10033 21006 53002 TSNO





000
SAUS43 KAPX 301055
MTRAPN
METAR KAPN 301054Z AUTO 25004KT 10SM CLR 00/M01 A3008 RMK AO2 SLP193
T00001011 TSNO





000
SAUS43 KAPX 301055
MTRAPN
METAR KAPN 301054Z AUTO 25004KT 10SM CLR 00/M01 A3008 RMK AO2 SLP193
T00001011 TSNO





000
SAUS43 KAPX 300955
MTRAPN
METAR KAPN 300954Z AUTO 25003KT 10SM FEW070 00/M02 A3007 RMK AO2
SLP191 T00001017 TSNO





000
SAUS43 KAPX 300855
MTRAPN
METAR KAPN 300854Z AUTO 26004KT 10SM CLR 01/M02 A3008 RMK AO2 SLP191
T00061017 50003 TSNO





000
SAUS43 KAPX 300755
MTRAPN
METAR KAPN 300754Z AUTO 27003KT 10SM CLR 01/M01 A3008 RMK AO2 SLP192
T00111011 TSNO





000
SAUS43 KAPX 300656
MTRAPN
METAR KAPN 300654Z AUTO 28005KT 10SM FEW027 03/M01 A3007 RMK AO2
SLP189 T00281011 TSNO





000
SAUS43 KAPX 300555
MTRAPN
METAR KAPN 300554Z AUTO VRB04KT 10SM BKN028 03/M01 A3006 RMK AO2
SLP186 T00281011 10061 20022 53002 TSNO





000
SAUS43 KAPX 300455
MTRAPN
METAR KAPN 300454Z AUTO 30005KT 10SM CLR 03/M01 A3006 RMK AO2 SLP185
T00281011 400940028 TSNO





000
SAUS43 KAPX 300455
MTRAPN
METAR KAPN 300454Z AUTO 30005KT 10SM CLR 03/M01 A3006 RMK AO2 SLP185
T00281011 400940028 TSNO





000
SAUS43 KAPX 300355
MTRAPN
METAR KAPN 300354Z AUTO 31008KT 10SM SCT030 03/M01 A3006 RMK AO2
SLP184 T00331011 TSNO





000
SAUS43 KAPX 300352
MTRAPN
SPECI KAPN 300351Z AUTO 31007KT 270V330 10SM SCT030 03/M01 A3006 RMK
AO2 TSNO





000
SAUS43 KAPX 300255
MTRAPN
METAR KAPN 300254Z AUTO 30008KT 10SM OVC028 04/00 A3005 RMK AO2
SLP180 T00390000 51012 TSNO





000
SAUS43 KAPX 300242
MTRAPN
SPECI KAPN 300241Z AUTO 31007KT 10SM BKN029 04/00 A3005 RMK AO2
T00390000 TSNO





000
SAUS43 KAPX 300155
MTRAPN
METAR KAPN 300154Z AUTO 31007G16KT 10SM CLR 04/00 A3004 RMK AO2
SLP179 T00390000 TSNO





000
SAUS43 KAPX 300055
MTRAPN
METAR KAPN 300054Z AUTO 30007G16KT 10SM SCT025 05/01 A3003 RMK AO2
SLP174 T00500011 TSNO





000
SAUS43 KAPX 300040
MTRAPN
SPECI KAPN 300039Z AUTO 31011G17KT 10SM FEW025 BKN031 05/01 A3003
RMK AO2 T00500011 TSNO





000
SAUS43 KAPX 292355
MTRAPN
METAR KAPN 292354Z AUTO 32010KT 10SM BKN029 06/01 A3001 RMK AO2
SLP168 60000 T00610011 10094 20056 51027 TSNO





000
SAUS43 KAPX 292313
MTRAPN
SPECI KAPN 292312Z AUTO 31007G18KT 10SM BKN029 06/01 A3000 RMK AO2
T00610011 TSNO





000
SAUS43 KAPX 292255
MTRAPN
METAR KAPN 292254Z AUTO 31012G18KT 10SM SCT030 BKN036 06/01 A2999
RMK AO2 RAE00 SLP160 P0000 T00610011 TSNO





000
SAUS43 KAPX 292228 COR
MTRAPN
SPECI KAPN 292219Z AUTO 31006KT 10SM OVC031 07/02 A2997 RMK AO2
RAE00 P0000 T00670017 TSNO





000
SAUS43 KAPX 292221 COR
MTRAPN
SPECI KAPN 292219Z AUTO 31006KT 10SM OVC031 07/02 A2997 RMK AO2
RAE00 P0000 T00670017 TSNO





000
SAUS43 KAPX 292155
MTRAPN
METAR KAPN 292154Z AUTO 29005KT 10SM -RA BKN027 OVC034 07/02 A2996
RMK AO2 RAB41 SLP150 P0000 T00670022 TSNO





000
SAUS43 KAPX 292144
MTRAPN
SPECI KAPN 292143Z AUTO 30006KT 10SM -RA BKN027 OVC035 07/02 A2995
RMK AO2 RAB41 P0000 T00720017 TSNO





000
SAUS43 KAPX 292055
MTRAPN
METAR KAPN 292054Z AUTO 29011G18KT 10SM BKN033 08/01 A2993 RMK AO2
SLP141 T00780006 53019 TSNO





000
SAUS43 KAPX 291955
MTRAPN
METAR KAPN 291954Z AUTO 30009KT 270V330 10SM BKN037 08/01 A2991 RMK
AO2 SLP134 T00780006 TSNO





000
SAUS43 KAPX 291855
MTRAPN
METAR KAPN 291854Z AUTO 32010G16KT 10SM SCT028 BKN039 08/02 A2989
RMK AO2 SLP126 T00780017 TSNO





000
SAUS43 KAPX 291803 COR
MTRAPN
METAR KAPN 291754Z AUTO 29010G19KT 260V320 10SM FEW029 SCT040 08/02
A2987 RMK AO2 RAE1659 SLP120 P0000 60000 T00830017 10083 20061 51011
TSNO





000
SAUS43 KAPX 291756 COR
MTRAPN
METAR KAPN 291754Z AUTO 29010G19KT 260V320 10SM FEW029 SCT040 08/02
A2987 RMK AO2 RAE1659 SLP120 P0000 60000 T00830017 10083 20061 51011
TSNO





000
SAUS43 KAPX 291705 COR
MTRAPN
METAR KAPN 291654Z AUTO 31008G18KT 10SM -RA SCT022 BKN036 BKN046
06/03 A2987 RMK AO2 RAB38 SLP119 P0000 T00610028 TSNO





000
SAUS43 KAPX 291656 COR
MTRAPN
METAR KAPN 291654Z AUTO 31008G18KT 10SM -RA SCT022 BKN036 BKN046
06/03 A2987 RMK AO2 RAB38 SLP119 P0000 T00610028 TSNO





000
SAUS43 KAPX 291556
MTRAPN
METAR KAPN 291554Z AUTO 26009G18KT 10SM BKN023 OVC065 07/03 A2986
RMK AO2 RAB14E24 SLP114 P0000 T00720033 TSNO





000
SAUS43 KAPX 291538 COR
MTRAPN
SPECI KAPN 291528Z AUTO 28009G18KT 10SM SCT019 BKN046 OVC055 07/03
A2985 RMK AO2 RAB14E24 P0000 T00670033 TSNO





000
SAUS43 KAPX 291530 COR
MTRAPN
SPECI KAPN 291528Z AUTO 28009G18KT 10SM SCT019 BKN046 OVC055 07/03
A2985 RMK AO2 RAB14E24 P0000 T00670033 TSNO





000
SAUS43 KAPX 291455
MTRAPN
METAR KAPN 291454Z AUTO 27009G15KT 10SM BKN020 OVC028 07/03 A2984
RMK AO2 SLP108 T00670028 51016 TSNO





000
SAUS43 KAPX 291450 COR
MTRAPN
SPECI KAPN 291441Z AUTO 27011KT 10SM SCT020 BKN028 OVC075 07/03
A2984 RMK AO2 T00670028 TSNO





000
SAUS43 KAPX 291443 COR
MTRAPN
SPECI KAPN 291441Z AUTO 27011KT 10SM SCT020 BKN028 OVC075 07/03
A2984 RMK AO2 T00670028 TSNO





000
SAUS43 KAPX 291356
MTRAPN
METAR KAPN 291354Z AUTO 25007KT 10SM SCT046 OVC080 06/03 A2982 RMK
AO2 SLP103 T00610028 TSNO





000
SAUS43 KAPX 291255
MTRAPN
METAR KAPN 291254Z AUTO 26007G14KT 10SM FEW018 OVC038 06/03 A2982
RMK AO2 SLP100 T00610028 TSNO





000
SAUS43 KAPX 291243
MTRAPN
SPECI KAPN 291242Z AUTO 26005KT 10SM FEW018 SCT026 OVC042 06/03
A2981 RMK AO2 T00610033 TSNO





000
SAUS43 KAPX 291155
MTRAPN
METAR KAPN 291154Z AUTO 26007KT 10SM OVC024 07/03 A2979 RMK AO2
SLP092 60000 T00670028 10072 20061 53012 TSNO





000
SAUS43 KAPX 291134
MTRAPN
SPECI KAPN 291133Z AUTO 26007KT 10SM BKN026 OVC060 07/03 A2979 RMK
AO2 T00720028 TSNO





000
SAUS43 KAPX 291055
MTRAPN
METAR KAPN 291054Z AUTO 23008KT 10SM FEW060 OVC080 07/03 A2978 RMK
AO2 SLP086 T00670033 TSNO





000
SAUS43 KAPX 290955
MTRAPN
METAR KAPN 290954Z AUTO 23007KT 10SM SCT025 BKN038 OVC085 06/03
A2977 RMK AO2 RAB36E52 SLP084 P0000 T00610033 TSNO





000
SAUS43 KAPX 290941
MTRAPN
SPECI KAPN 290940Z AUTO VRB06KT 7SM -RA SCT022 BKN029 OVC050 07/03
A2978 RMK AO2 RAB36 P0000 T00670028 TSNO





000
SAUS43 KAPX 290855
MTRAPN
METAR KAPN 290854Z AUTO 21008KT 10SM BKN049 BKN060 OVC075 07/02
A2976 RMK AO2 SLP079 T00670022 58001 TSNO





000
SAUS43 KAPX 290755
MTRAPN
METAR KAPN 290754Z AUTO 21007KT 10SM OVC070 07/02 A2976 RMK AO2
SLP080 T00670022 TSNO





000
SAUS43 KAPX 290655
MTRAPN
METAR KAPN 290654Z AUTO 19007KT 10SM BKN037 BKN075 06/02 A2976 RMK
AO2 SLP080 T00610017 TSNO





000
SAUS43 KAPX 290555
MTRAPN
METAR KAPN 290554Z AUTO 21009KT 10SM BKN037 BKN075 07/02 A2976 RMK
AO2 SLP081 T00720017 10122 20072 51001 TSNO





000
SAUS43 KAPX 290455
MTRAPN
METAR KAPN 290454Z AUTO 22009KT 10SM SCT065 07/02 A2976 RMK AO2
SLP079 T00720017 401670072 TSNO





000
SAUS43 KAPX 290355
MTRAPN
METAR KAPN 290354Z AUTO 22009KT 10SM BKN060 08/02 A2976 RMK AO2
SLP081 T00780017 TSNO





000
SAUS43 KAPX 290256
MTRAPN
METAR KAPN 290254Z AUTO 24009G16KT 10SM OVC060 09/02 A2976 RMK AO2
SLP078 T00890017 51017 TSNO





    US Dept of Commerce
    National Oceanic and Atmospheric Administration
    National Weather Service
    1325 East West Highway
    Silver Spring, MD 20910
    Page Author: NWS Internet Services Team
Disclaimer
Information Quality
Credits
Glossary
Privacy Policy
Freedom of Information Act (FOIA)
About Us
Career Opportunities